Mabelvale, Arkansas
Current Conditions -  °F | °C
As of 5:53 PM on Friday 24 Oct 2014 (Local Time) from KLIT Reporting Station
Scattered Clouds Scattered Clouds  
Wind Chill: 72°   Ceiling: Unl
Heat Index: 72°   Visibility: 10mi
Dew Point: 55°   Wind: 7mph
Humidity: 55%   Direction: 200°SSW
Pressure: 30.08"   Gusts: NA
Location:  34.66°N, 92.39°W
Report Text: KLIT 242253Z 20006KT 10SM SCT250 22/13 A3008 RMK AO2 SLP188 T02220128
Loading
Personal Weather Stations






























Interactive Weather Map
Tropical Storm Tracking
New forecast layout! Learn more

10-Day Weather Forecast

Advertisements
Track Severe Weather on mobile